createdAt,value
2023-03-25T00:00:17.581Z,12.78
2023-03-25T00:03:04.609Z,12.74
2023-03-25T00:05:50.519Z,12.66
2023-03-25T00:08:37.523Z,12.58
2023-03-25T00:11:23.689Z,12.47
2023-03-25T00:14:12.305Z,12.35
2023-03-25T00:16:58.979Z,12.24
2023-03-25T00:19:45.065Z,12.18
2023-03-25T00:22:30.978Z,12.18
2023-03-25T00:25:19.214Z,12.19
2023-03-25T00:28:05.437Z,12.18
2023-03-25T00:30:53.545Z,12.18
2023-03-25T00:33:41.849Z,12.18
2023-03-25T00:36:27.684Z,12.17
2023-03-25T00:39:13.786Z,12.10
2023-03-25T00:42:02.031Z,12.01
2023-03-25T00:44:50.795Z,11.86
2023-03-25T00:47:36.969Z,11.87
2023-03-25T00:50:42.076Z,11.84
2023-03-25T00:53:28.109Z,11.86
2023-03-25T00:56:14.526Z,11.87
2023-03-25T00:59:00.436Z,11.84
2023-03-25T01:01:48.882Z,11.87
2023-03-25T01:04:35.475Z,11.82
2023-03-25T01:07:24.390Z,11.81
2023-03-25T01:10:11.696Z,11.80
2023-03-25T01:12:57.787Z,11.72
2023-03-25T01:15:43.500Z,11.68
2023-03-25T01:18:29.460Z,11.58
2023-03-25T01:21:15.905Z,11.50
2023-03-25T01:24:02.382Z,11.40
2023-03-25T01:26:48.599Z,11.29
2023-03-25T01:29:34.244Z,11.15
2023-03-25T01:32:19.825Z,11.12
2023-03-25T01:35:06.496Z,11.09
2023-03-25T01:37:54.779Z,11.08
2023-03-25T01:40:40.876Z,11.06
2023-03-25T01:43:27.081Z,11.05
2023-03-25T01:46:17.303Z,11.03
2023-03-25T01:49:08.400Z,11.01
2023-03-25T01:51:58.652Z,11.04
2023-03-25T01:54:45.787Z,10.93
2023-03-25T01:57:32.477Z,10.88
2023-03-25T02:00:27.383Z,10.81
2023-03-25T02:03:21.773Z,10.76
2023-03-25T02:06:16.223Z,10.69
2023-03-25T02:09:05.279Z,10.74
2023-03-25T02:11:54.844Z,10.75
2023-03-25T02:14:41.356Z,10.77
2023-03-25T02:18:01.484Z,10.71
2023-03-25T02:21:03.967Z,10.71
2023-03-25T02:23:58.417Z,10.71
2023-03-25T02:27:27.671Z,10.64
2023-03-25T02:30:38.958Z,10.65
2023-03-25T02:33:41.623Z,10.63
2023-03-25T02:36:34.650Z,10.60
2023-03-25T02:39:49.595Z,10.51
2023-03-25T02:42:46.013Z,10.48
2023-03-25T02:45:34.284Z,10.47
2023-03-25T02:48:33.340Z,10.41
2023-03-25T02:51:24.792Z,10.40
2023-03-25T02:54:13.342Z,10.39
2023-03-25T02:57:00.714Z,10.34
2023-03-25T02:59:49.160Z,10.33
2023-03-25T03:02:35.229Z,10.24
2023-03-25T03:05:24.533Z,10.20
2023-03-25T03:08:29.630Z,10.17
2023-03-25T03:11:17.650Z,10.18
2023-03-25T03:14:30.991Z,10.08
2023-03-25T03:17:51.218Z,10.10
2023-03-25T03:21:08.449Z,10.07
2023-03-25T03:23:57.714Z,10.01
2023-03-25T03:27:00.725Z,9.98
2023-03-25T03:29:49.152Z,9.96
2023-03-25T03:33:04.460Z,9.97
2023-03-25T03:35:57.743Z,9.84
2023-03-25T03:38:48.110Z,9.79
2023-03-25T03:41:37.985Z,9.73
2023-03-25T03:44:29.952Z,9.67
2023-03-25T03:47:19.906Z,9.62
2023-03-25T03:50:09.446Z,9.55
2023-03-25T03:53:11.107Z,9.48
2023-03-25T03:56:09.580Z,9.49
2023-03-25T03:58:59.510Z,9.45
2023-03-25T04:01:48.071Z,9.48
2023-03-25T04:04:35.020Z,9.48
2023-03-25T04:07:38.879Z,9.50
2023-03-25T04:10:40.236Z,9.55
2023-03-25T04:13:34.357Z,9.59
2023-03-25T04:16:20.364Z,9.65
2023-03-25T04:19:06.619Z,9.68
2023-03-25T04:21:52.572Z,9.72
2023-03-25T04:24:41.713Z,9.74
2023-03-25T04:27:29.824Z,9.78
2023-03-25T04:30:19.534Z,9.77
2023-03-25T04:33:06.346Z,9.76
2023-03-25T04:35:53.086Z,9.76
2023-03-25T04:38:40.758Z,9.74
2023-03-25T04:41:28.843Z,9.74
2023-03-25T04:44:14.975Z,9.74
2023-03-25T04:47:01.986Z,9.70
2023-03-25T04:49:48.145Z,9.68
2023-03-25T04:52:34.629Z,9.71
2023-03-25T04:55:21.395Z,9.77
2023-03-25T04:58:07.715Z,9.79
2023-03-25T05:00:54.103Z,9.78
2023-03-25T05:03:40.258Z,9.76
2023-03-25T05:06:26.383Z,9.75
2023-03-25T05:09:15.771Z,9.66
2023-03-25T05:12:01.811Z,9.72
2023-03-25T05:14:47.583Z,9.73
2023-03-25T05:17:33.365Z,9.75
2023-03-25T05:20:19.118Z,9.76
2023-03-25T05:23:05.613Z,9.80
2023-03-25T05:25:51.828Z,9.81
2023-03-25T05:28:38.514Z,9.83
2023-03-25T05:31:24.502Z,9.81
2023-03-25T05:34:10.174Z,9.84
2023-03-25T05:36:58.198Z,9.85
2023-03-25T05:39:45.721Z,9.87
2023-03-25T05:42:33.251Z,9.88
2023-03-25T05:45:19.250Z,9.84
2023-03-25T05:48:05.445Z,9.90
2023-03-25T05:50:51.222Z,9.92
2023-03-25T05:53:37.686Z,9.95
2023-03-25T05:56:24.405Z,9.99
2023-03-25T05:59:10.701Z,10.02
2023-03-25T06:01:56.558Z,10.08
2023-03-25T06:04:42.902Z,10.10
2023-03-25T06:07:28.488Z,10.11
2023-03-25T06:10:18.058Z,10.16
2023-03-25T06:13:03.962Z,10.21
2023-03-25T06:15:49.890Z,10.25
2023-03-25T06:18:37.027Z,10.25
2023-03-25T06:21:23.979Z,10.35
2023-03-25T06:24:09.710Z,10.43
2023-03-25T06:26:55.374Z,10.57
2023-03-25T06:29:43.801Z,10.68
2023-03-25T06:32:30.964Z,10.73
2023-03-25T06:35:19.860Z,10.78
2023-03-25T06:38:05.808Z,10.80
2023-03-25T06:41:07.958Z,10.81
2023-03-25T06:43:53.854Z,10.86
2023-03-25T06:47:02.522Z,10.92
2023-03-25T06:50:09.002Z,11.06
2023-03-25T06:52:54.601Z,11.21
2023-03-25T06:55:41.350Z,11.34
2023-03-25T06:58:34.834Z,11.54
2023-03-25T07:01:21.923Z,11.68
2023-03-25T07:04:07.520Z,11.81
2023-03-25T07:06:54.669Z,12.00
2023-03-25T07:09:41.704Z,12.14
2023-03-25T07:12:27.388Z,12.29
2023-03-25T07:15:13.203Z,12.44
2023-03-25T07:18:01.270Z,12.56
2023-03-25T07:20:46.957Z,12.68
2023-03-25T07:23:32.683Z,12.81
2023-03-25T07:26:18.557Z,12.88
2023-03-25T07:29:04.405Z,12.95
2023-03-25T07:31:50.121Z,12.98
2023-03-25T07:34:36.244Z,12.94
2023-03-25T07:37:22.131Z,13.05
2023-03-25T07:40:08.479Z,13.11
2023-03-25T07:42:54.319Z,13.17
2023-03-25T07:45:43.731Z,13.24
2023-03-25T07:48:30.479Z,13.28
2023-03-25T07:51:16.453Z,13.32
2023-03-25T07:54:05.513Z,13.35
2023-03-25T07:56:52.931Z,13.37
2023-03-25T07:59:39.416Z,13.44
2023-03-25T08:02:25.332Z,13.52
2023-03-25T08:05:11.049Z,13.56
2023-03-25T08:08:00.355Z,13.58
2023-03-25T08:10:48.197Z,13.59
2023-03-25T08:13:34.113Z,13.61
2023-03-25T08:16:19.678Z,13.62
2023-03-25T08:19:05.371Z,13.67
2023-03-25T08:22:03.627Z,13.72
2023-03-25T08:24:50.436Z,13.89
2023-03-25T08:27:37.051Z,13.99
2023-03-25T08:30:26.189Z,14.09
2023-03-25T08:33:11.937Z,14.23
2023-03-25T08:35:57.988Z,14.38
2023-03-25T08:38:43.714Z,14.49
2023-03-25T08:41:29.366Z,14.66
2023-03-25T08:44:15.474Z,14.78
2023-03-25T08:47:01.575Z,14.95
2023-03-25T08:49:47.402Z,15.07
2023-03-25T08:52:33.055Z,15.25
2023-03-25T08:55:18.721Z,15.42
2023-03-25T08:58:06.367Z,15.60
2023-03-25T09:00:55.736Z,15.80
2023-03-25T09:03:42.287Z,15.97
2023-03-25T09:06:28.174Z,16.28
2023-03-25T09:09:13.751Z,16.58
2023-03-25T09:11:59.722Z,16.83
2023-03-25T09:14:45.944Z,17.05
2023-03-25T09:17:31.974Z,17.27
2023-03-25T09:20:18.769Z,17.51
2023-03-25T09:23:04.518Z,17.71
2023-03-25T09:25:50.389Z,17.89
2023-03-25T09:28:36.402Z,18.06
2023-03-25T09:31:23.422Z,18.23
2023-03-25T09:34:09.368Z,18.37
2023-03-25T09:36:55.818Z,18.51
2023-03-25T09:39:41.680Z,18.68
2023-03-25T09:42:41.629Z,18.84
2023-03-25T09:45:37.265Z,18.98
2023-03-25T09:48:40.531Z,19.06
2023-03-25T09:51:36.616Z,19.18
2023-03-25T09:54:28.856Z,19.25
2023-03-25T09:57:18.667Z,19.27
2023-03-25T10:00:07.119Z,19.31
2023-03-25T10:03:33.108Z,19.32
2023-03-25T10:06:20.903Z,19.40
2023-03-25T10:09:12.935Z,19.47
2023-03-25T10:12:23.557Z,19.52
2023-03-25T10:15:18.213Z,19.57
2023-03-25T10:18:33.997Z,19.61
2023-03-25T10:21:50.339Z,19.63
2023-03-25T10:24:51.990Z,19.69
2023-03-25T10:27:49.628Z,19.75
2023-03-25T10:30:41.794Z,19.82
2023-03-25T10:33:42.434Z,19.90
2023-03-25T10:36:38.318Z,20.02
2023-03-25T10:39:25.572Z,20.14
2023-03-25T10:42:30.666Z,20.21
2023-03-25T10:45:18.297Z,20.36
2023-03-25T10:48:14.883Z,20.45
2023-03-25T10:51:08.489Z,20.65
2023-03-25T10:53:55.430Z,20.80
2023-03-25T10:56:45.704Z,20.90
2023-03-25T10:59:38.235Z,21.03
2023-03-25T11:02:26.109Z,21.17
2023-03-25T11:05:15.946Z,21.32
2023-03-25T11:08:14.965Z,21.44
2023-03-25T11:11:08.554Z,21.57
2023-03-25T11:13:57.500Z,21.63
2023-03-25T11:16:47.468Z,21.68
2023-03-25T11:19:39.773Z,21.68
2023-03-25T11:22:30.940Z,21.67
2023-03-25T11:25:25.930Z,21.59
2023-03-25T11:28:16.523Z,21.48
2023-03-25T11:31:16.667Z,21.27
2023-03-25T11:34:21.827Z,21.10
2023-03-25T11:37:19.002Z,20.91
2023-03-25T11:40:06.785Z,20.76
2023-03-25T11:43:00.473Z,20.66
2023-03-25T11:45:46.796Z,20.56
2023-03-25T11:48:37.336Z,20.46
2023-03-25T11:51:26.122Z,20.42
2023-03-25T11:54:14.763Z,20.38
2023-03-25T11:57:04.354Z,20.37
2023-03-25T12:00:01.118Z,20.37
2023-03-25T12:02:47.171Z,20.40
2023-03-25T12:05:34.120Z,20.47
2023-03-25T12:08:22.763Z,20.76
2023-03-25T12:11:16.925Z,21.21
2023-03-25T12:14:10.220Z,22.06
2023-03-25T12:17:18.235Z,23.09
2023-03-25T12:20:22.605Z,24.11
2023-03-25T12:23:28.894Z,25.06
2023-03-25T12:26:19.587Z,25.75
2023-03-25T12:29:32.685Z,26.24
2023-03-25T12:32:53.635Z,26.98
2023-03-25T12:35:49.975Z,27.38
2023-03-25T12:39:00.346Z,27.72
2023-03-25T12:42:13.309Z,28.14
2023-03-25T12:45:10.139Z,28.34
2023-03-25T12:48:09.835Z,28.52
2023-03-25T12:51:01.877Z,28.19
2023-03-25T12:54:17.186Z,27.44
2023-03-25T12:57:06.170Z,27.31
2023-03-25T13:00:09.340Z,27.20
2023-03-25T13:03:40.317Z,26.88
2023-03-25T13:06:43.924Z,26.23
2023-03-25T13:09:30.109Z,25.71
2023-03-25T13:12:49.745Z,25.33
2023-03-25T13:15:35.694Z,25.33
2023-03-25T13:18:26.348Z,25.68
2023-03-25T13:21:33.229Z,26.06
2023-03-25T13:24:25.142Z,26.27
2023-03-25T13:27:12.992Z,26.21
2023-03-25T13:30:00.414Z,25.99
2023-03-25T13:32:50.629Z,25.84
2023-03-25T13:35:42.008Z,25.94
2023-03-25T13:38:58.264Z,26.48
2023-03-25T13:41:51.795Z,27.16
2023-03-25T13:44:40.320Z,27.86
2023-03-25T13:47:37.582Z,28.40
2023-03-25T13:50:29.119Z,29.07
2023-03-25T13:53:38.219Z,29.76
2023-03-25T13:56:27.351Z,30.24
2023-03-25T13:59:28.268Z,30.57
2023-03-25T14:02:52.431Z,30.98
2023-03-25T14:06:07.956Z,31.15
2023-03-25T14:09:18.104Z,30.90
2023-03-25T14:12:09.801Z,30.36
2023-03-25T14:15:06.763Z,30.33
2023-03-25T14:17:54.506Z,30.27
2023-03-25T14:20:41.845Z,30.56
2023-03-25T14:23:31.303Z,30.73
2023-03-25T14:26:18.127Z,30.29
2023-03-25T14:29:10.045Z,29.48
2023-03-25T14:32:02.102Z,29.08
2023-03-25T14:34:51.900Z,29.28
2023-03-25T14:37:41.963Z,29.68
2023-03-25T14:40:50.812Z,30.08
2023-03-25T14:43:53.984Z,30.36
2023-03-25T14:46:46.434Z,30.26
2023-03-25T14:50:04.999Z,29.68
2023-03-25T14:52:56.445Z,28.82
2023-03-25T14:55:45.266Z,27.91
2023-03-25T14:58:31.853Z,27.03
2023-03-25T15:01:20.835Z,26.31
2023-03-25T15:04:19.320Z,25.71
2023-03-25T15:07:11.651Z,25.09
2023-03-25T15:09:59.242Z,24.62
2023-03-25T15:12:53.093Z,24.25
2023-03-25T15:15:45.129Z,23.89
2023-03-25T15:18:37.587Z,23.46
2023-03-25T15:21:24.682Z,23.15
2023-03-25T15:24:12.150Z,22.90
2023-03-25T15:27:04.447Z,22.71
2023-03-25T15:30:12.443Z,22.57
2023-03-25T15:32:58.543Z,22.44
2023-03-25T15:36:16.021Z,22.31
2023-03-25T15:39:40.534Z,22.16
2023-03-25T15:42:45.354Z,22.05
2023-03-25T15:45:34.194Z,21.92
2023-03-25T15:48:27.566Z,21.88
2023-03-25T15:51:16.668Z,21.77
2023-03-25T15:54:17.901Z,21.72
2023-03-25T15:57:14.399Z,21.67
2023-03-25T16:00:13.701Z,21.71
2023-03-25T16:03:08.629Z,21.82
2023-03-25T16:05:59.659Z,21.95
2023-03-25T16:08:47.330Z,21.93
2023-03-25T16:11:33.141Z,21.84
2023-03-25T16:14:22.364Z,21.71
2023-03-25T16:17:09.014Z,21.57
2023-03-25T16:19:56.471Z,21.45
2023-03-25T16:22:44.045Z,21.24
2023-03-25T16:25:38.436Z,21.13
2023-03-25T16:28:44.966Z,20.94
2023-03-25T16:31:34.947Z,20.77
2023-03-25T16:34:21.517Z,20.59
2023-03-25T16:37:07.976Z,20.46
2023-03-25T16:39:55.693Z,20.31
2023-03-25T16:42:41.511Z,20.18
2023-03-25T16:45:27.196Z,20.01
2023-03-25T16:48:27.106Z,19.89
2023-03-25T16:51:22.041Z,19.83
2023-03-25T16:54:13.311Z,19.72
2023-03-25T16:57:01.077Z,19.61
2023-03-25T16:59:47.920Z,19.58
2023-03-25T17:02:42.969Z,19.49
2023-03-25T17:05:30.048Z,19.42
2023-03-25T17:08:18.402Z,19.30
2023-03-25T17:11:04.409Z,19.25
2023-03-25T17:13:52.733Z,19.18
2023-03-25T17:16:38.842Z,19.08
2023-03-25T17:19:26.794Z,19.02
2023-03-25T17:22:16.620Z,18.90
2023-03-25T17:25:27.510Z,18.81
2023-03-25T17:28:58.172Z,18.71
2023-03-25T17:31:43.949Z,18.62
2023-03-25T17:34:32.234Z,18.55
2023-03-25T17:37:19.181Z,18.46
2023-03-25T17:40:11.676Z,18.41
2023-03-25T17:42:58.859Z,18.35
2023-03-25T17:45:47.057Z,18.34
2023-03-25T17:48:33.309Z,18.28
2023-03-25T17:51:20.760Z,18.28
2023-03-25T17:54:06.719Z,18.25
2023-03-25T17:56:52.908Z,18.24
2023-03-25T17:59:38.757Z,18.19
2023-03-25T18:02:24.560Z,18.17
2023-03-25T18:05:11.055Z,18.14
2023-03-25T18:07:58.370Z,18.09
2023-03-25T18:10:44.278Z,17.97
2023-03-25T18:13:30.036Z,17.97
2023-03-25T18:16:16.816Z,17.94
2023-03-25T18:19:02.895Z,17.85
2023-03-25T18:21:48.948Z,17.80
2023-03-25T18:24:35.068Z,17.74
2023-03-25T18:27:25.579Z,17.70
2023-03-25T18:30:39.168Z,17.60
2023-03-25T18:33:25.601Z,17.55
2023-03-25T18:36:11.968Z,17.44
2023-03-25T18:38:57.869Z,17.33
2023-03-25T18:41:44.172Z,17.22
2023-03-25T18:44:30.920Z,17.13
2023-03-25T18:47:17.098Z,16.99
2023-03-25T18:50:13.109Z,16.91
2023-03-25T18:52:59.737Z,16.86
2023-03-25T18:55:46.586Z,16.78
2023-03-25T18:58:34.022Z,16.70
2023-03-25T19:01:21.924Z,16.63
2023-03-25T19:04:09.286Z,16.55
2023-03-25T19:06:55.883Z,16.49
2023-03-25T19:09:41.655Z,16.43
2023-03-25T19:12:27.366Z,16.35
2023-03-25T19:15:15.758Z,16.29
2023-03-25T19:18:02.008Z,16.20
2023-03-25T19:20:49.686Z,16.11
2023-03-25T19:23:36.446Z,16.06
2023-03-25T19:26:22.229Z,15.99
2023-03-25T19:29:08.780Z,15.89
2023-03-25T19:31:54.939Z,15.87
2023-03-25T19:34:40.430Z,15.79
2023-03-25T19:37:30.510Z,15.73
2023-03-25T19:40:18.916Z,15.71
2023-03-25T19:43:07.864Z,15.67
2023-03-25T19:45:57.753Z,15.60
2023-03-25T19:48:43.873Z,15.64
2023-03-25T19:51:29.814Z,15.63
2023-03-25T19:54:15.529Z,15.66
2023-03-25T19:57:01.577Z,15.69
2023-03-25T19:59:48.279Z,15.68
2023-03-25T20:02:34.353Z,15.71
2023-03-25T20:05:21.803Z,15.67
2023-03-25T20:08:09.503Z,15.67
2023-03-25T20:10:55.352Z,15.59
2023-03-25T20:13:41.309Z,15.63
2023-03-25T20:16:28.405Z,15.59
2023-03-25T20:19:14.230Z,15.56
2023-03-25T20:22:00.621Z,15.53
2023-03-25T20:24:46.491Z,15.49
2023-03-25T20:27:32.522Z,15.43
2023-03-25T20:30:19.675Z,15.39
2023-03-25T20:33:05.653Z,15.33
2023-03-25T20:35:52.050Z,15.29
2023-03-25T20:38:42.006Z,15.21
2023-03-25T20:41:36.885Z,15.09
2023-03-25T20:44:22.949Z,15.02
2023-03-25T20:47:09.459Z,14.94
2023-03-25T20:49:56.191Z,14.76
2023-03-25T20:52:43.836Z,14.71
2023-03-25T20:55:29.562Z,14.51
2023-03-25T20:58:15.977Z,14.42
2023-03-25T21:01:02.773Z,14.34
2023-03-25T21:03:50.395Z,14.32
2023-03-25T21:06:35.986Z,14.29
2023-03-25T21:09:22.008Z,14.23
2023-03-25T21:12:08.211Z,14.13
2023-03-25T21:14:54.523Z,14.11
2023-03-25T21:17:40.947Z,14.02
2023-03-25T21:20:28.913Z,13.96
2023-03-25T21:23:14.777Z,13.94
2023-03-25T21:26:09.308Z,13.87
2023-03-25T21:28:56.909Z,13.81
2023-03-25T21:31:42.898Z,13.73
2023-03-25T21:34:30.299Z,13.64
2023-03-25T21:37:16.476Z,13.60
2023-03-25T21:40:02.763Z,13.54
2023-03-25T21:42:48.849Z,13.55
2023-03-25T21:45:35.404Z,13.48
2023-03-25T21:48:22.641Z,13.54
2023-03-25T21:51:14.429Z,13.49
2023-03-25T21:54:00.688Z,13.37
2023-03-25T21:56:51.949Z,13.31
2023-03-25T21:59:37.660Z,13.24
2023-03-25T22:02:25.645Z,13.19
2023-03-25T22:05:12.913Z,13.13
2023-03-25T22:07:59.102Z,13.20
2023-03-25T22:10:45.088Z,13.16
2023-03-25T22:13:30.818Z,13.15
2023-03-25T22:16:18.133Z,13.22
2023-03-25T22:19:04.645Z,13.24
2023-03-25T22:21:50.738Z,13.27
2023-03-25T22:24:37.063Z,13.34
2023-03-25T22:27:23.001Z,13.34
2023-03-25T22:30:09.408Z,13.37
2023-03-25T22:32:54.962Z,13.36
2023-03-25T22:35:41.119Z,13.37
2023-03-25T22:38:26.789Z,13.40
2023-03-25T22:41:15.443Z,13.41
2023-03-25T22:44:01.447Z,13.39
2023-03-25T22:46:49.023Z,13.37
2023-03-25T22:49:35.054Z,13.37
2023-03-25T22:52:21.025Z,13.32
2023-03-25T22:55:07.762Z,13.31
2023-03-25T22:57:53.914Z,13.26
2023-03-25T23:00:42.156Z,13.20
2023-03-25T23:03:36.148Z,13.16
2023-03-25T23:06:23.519Z,13.11
2023-03-25T23:09:10.028Z,13.06
2023-03-25T23:11:57.029Z,12.99
2023-03-25T23:14:48.198Z,12.87
2023-03-25T23:17:35.283Z,12.75
2023-03-25T23:20:22.343Z,12.75
2023-03-25T23:23:08.057Z,12.67
2023-03-25T23:26:27.594Z,12.55
2023-03-25T23:29:14.064Z,12.47
2023-03-25T23:32:00.472Z,12.38
2023-03-25T23:34:46.378Z,12.27
2023-03-25T23:37:34.003Z,12.19
2023-03-25T23:40:22.844Z,12.14
2023-03-25T23:43:08.826Z,12.01
2023-03-25T23:45:54.753Z,11.88
2023-03-25T23:48:41.142Z,11.80
2023-03-25T23:51:27.239Z,11.73
2023-03-25T23:54:15.393Z,11.67
2023-03-25T23:57:02.308Z,11.62
2023-03-25T23:59:48.198Z,11.55
